Station: PADTHAWAY SOUTH

  Atmospheric Gas Attenuation - ITU Rec 676-11   --------------- db/100km ---------------
Date Time Temp RH % AH g/m3 Dew Point Wind Direction Speed kph Gust kph Barometer mB Rainfall Since 9am 24GHz 47GHz 76GHz 122GHz 134GHz 241GHz
24 19:00 39 7 3.4 -3 17 26 1013.1 0 8.0 14.1 15.7 40.3 27.0 90.0
24 18:50 39.1 7 3.42 -2.9 15 20 1013.1 0 8.0 14.1 15.7 40.4 27.1 90.4
24 18:40 39.8 7 3.54 -2.4 17 20 1013.1 0 8.2 14.2 15.9 40.9 27.8 93.1
24 18:30 40.1 7 3.59 -2.2 20 32 1013.1 0 8.3 14.2 15.9 41.0 28.1 94.1
24 18:20 39.7 7 3.52 -2.5 22 26 1013.1 0 8.2 14.1 15.8 40.8 27.7 92.6
24 18:10 40 7 3.58 -2.3 24 28 1013.1 0 8.3 14.2 15.9 41.0 28.1 94.0
24 18:00 41.5 6 3.3 -3.3 20 32 1013.1 0 7.7 13.7 15.0 38.6 25.5 84.8
24 17:50 41.9 6 3.37 -3 20 30 1013.1 0 7.8 13.7 15.1 38.9 25.9 86.3
24 17:40 42 6 3.39 -2.9 24 28 1013.1 0 7.9 13.7 15.1 38.9 26.0 86.8
24 17:30 42.1 6 3.4 -2.9 15 22 1013.1 0 7.9 13.7 15.2 39.0 26.0 86.9
24 17:20 41.6 6 3.32 -3.2 11 15 1013.1 0 7.8 13.7 15.1 38.7 25.6 85.3
24 17:10 42 6 3.39 -2.9 15 20 1013.1 0 7.9 13.7 15.1 38.9 26.0 86.8
24 17:00 41 7 3.76 -1.6 17 24 1013.1 0 8.6 14.2 16.2 41.7 29.2 97.9
24 16:50 41.3 7 3.82 -1.4 19 24 1013.1 0 8.8 14.2 16.3 41.9 29.5 99.2
24 16:40 41.3 8 4.36 0.5 11 13 1013.1 0 9.8 14.7 17.6 45.4 33.8 114.2
24 16:30 41.7 6 3.34 -3.1 20 32 1013.1 0 7.8 13.7 15.1 38.8 25.7 85.7
24 16:20 41.2 6 3.25 -3.5 13 17 1013.1 0 7.6 13.7 15.0 38.4 25.2 83.8
24 16:10 41.8 6 3.35 -3.1 15 19 1013.1 0 7.8 13.7 15.1 38.8 25.7 85.9
24 16:00 41.1 7 3.78 -1.5 15 24 1013.1 0 8.7 14.2 16.2 41.8 29.3 98.3
24 15:50 40.5 7 3.67 -1.9 20 24 1013.1 0 8.5 14.2 16.1 41.4 28.6 95.9
24 15:40 41.5 6 3.3 -3.3 11 13 1013.1 0 7.7 13.7 15.0 38.6 25.5 84.8
24 15:30 41.4 6 3.29 -3.4 22 33 1013.1 0 7.7 13.7 15.0 38.6 25.4 84.6
24 15:20 42.3 7 4.01 -0.6 13 20 1013.1 0 9.1 14.3 16.5 42.7 30.7 103.3
24 15:10 42.4 6 3.45 -2.7 17 22 1013.1 0 8.0 13.7 15.2 39.1 26.3 88.0
24 15:00 41.8 6 3.35 -3.1 15 26 1013.1 0 7.8 13.7 15.1 38.8 25.7 85.9
24 14:50 42.1 7 3.97 -0.8 13 17 1013.1 0 9.0 14.3 16.5 42.5 30.4 102.4
24 14:40 41.4 7 3.83 -1.3 24 28 1013.1 0 8.8 14.2 16.3 42.0 29.6 99.4
24 14:30 41.9 8 4.49 0.9 15 30 1013.1 0 10.1 14.8 17.7 45.9 34.6 117.1
24 14:20 41 7 3.76 -1.6 9 13 1013.1 0 8.6 14.2 16.2 41.7 29.2 97.9
24 14:10 40.8 7 3.72 -1.7 13 15 1013.1 0 8.6 14.2 16.1 41.5 28.9 97.0
24 14:00 41.2 7 3.8 -1.4 20 28 1013.1 0 8.7 14.2 16.2 41.9 29.4 98.8
24 13:50 39.6 7 3.5 -2.6 24 30 1013.1 0 8.2 14.1 15.8 40.7 27.6 92.2
24 13:40 38.5 10 4.74 1.5 22 30 1013.1 0 10.7 15.6 19.1 49.4 38.0 129.0
24 13:30 38.7 10 4.78 1.6 19 32 1013.1 0 10.8 15.6 19.1 49.5 38.3 129.9
24 13:20 38.4 10 4.71 1.4 20 26 1013.1 0 10.6 15.5 19.0 49.2 37.8 128.2
24 13:10 39 9 4.37 0.4 20 28 1013.1 0 9.9 15.1 18.0 46.6 34.8 117.5
24 13:00 38.3 10 4.69 1.3 24 33 1013.1 0 10.6 15.5 19.0 49.2 37.7 127.8
24 12:50 38.3 10 4.69 1.3 20 24 1013.1 0 10.6 15.5 19.0 49.2 37.7 127.8
24 12:40 37.7 12 5.46 3.4 19 22 1013.1 0 12.2 16.4 21.1 54.8 44.5 151.8
24 12:30 37.3 12 5.35 3.1 20 32 1013.1 0 11.9 16.4 20.9 54.3 43.8 149.1
24 12:20 35.9 13 5.39 3.2 15 20 1013.1 0 12.1 16.7 21.3 55.4 44.8 152.8
24 12:10 36.1 13 5.44 3.3 22 28 1013.1 0 12.2 16.7 21.4 55.7 45.2 154.0
24 12:00 37 14 6.14 5.1 22 35 1013.1 0 13.5 17.3 23.1 60.1 50.9 174.2
24 11:50 36.5 14 5.99 4.7 28 33 1013.1 0 13.3 17.2 22.8 59.4 49.8 170.4
24 11:40 36.2 15 6.31 5.5 24 30 1013.1 0 13.9 17.6 23.8 61.9 52.9 181.2
24 11:30 35.1 16 6.36 5.5 22 32 1013.1 0 14.1 17.9 24.2 63.1 54.0 185.1
24 11:20 35.1 16 6.36 5.5 30 33 1013.1 0 14.1 17.9 24.2 63.1 54.0 185.1
24 11:10 35.4 18 7.27 7.5 22 26 1013.1 0 15.9 18.9 26.7 69.7 62.3 214.4
24 11:00 34.7 18 7.01 6.9 24 37 1013.1 0 15.4 18.7 26.2 68.3 60.4 207.4
24 10:50 33.9 21 7.84 8.5 19 24 1013.1 0 17.1 19.9 28.8 75.5 69.0 237.7
24 10:40 33.2 23 8.28 9.3 20 24 1013.1 0 18.0 20.6 30.4 79.7 74.0 255.2
24 10:30 32.6 24 8.37 9.4 24 37 1013.1 0 18.3 20.8 30.9 81.0 75.5 260.2
24 10:20 32.2 24 8.19 9.1 26 30 1013.1 0 17.9 20.7 30.5 79.9 74.0 255.0
24 10:10 31.6 26 8.59 9.8 20 26 1013.1 0 18.7 21.3 32.0 83.8 78.7 271.4
24 10:00 31.4 26 8.5 9.6 22 35 1013.1 0 18.6 21.2 31.8 83.2 77.9 268.7
24 09:50 30.2 28 8.58 9.7 19 28 1013.1 0 18.8 21.6 32.5 85.1 79.9 275.6
24 09:40 30.3 29 8.94 10.3 26 32 1013.1 0 19.5 22.1 33.6 88.1 83.6 288.7
24 09:30 29.4 30 8.81 10 20 28 1013.1 0 19.3 22.1 33.5 88.0 83.2 286.9
24 09:20 28.7 32 9.04 10.4 19 28 1013.1 0 19.8 22.6 34.6 90.7 86.4 298.2
24 09:10 28.3 33 9.12 10.5 20 28 1013.1 0 20.0 22.8 35.0 91.9 87.7 302.7
24 09:00 28.1 33 9.02 10.3 22 33 1013.1 0 19.8 22.7 34.8 91.2 86.8 299.6
24 08:50 27.6 35 9.31 10.8 17 24 1013.1 0 20.4 23.2 36.0 94.4 90.6 312.8
24 08:40 27.2 35 9.11 10.4 20 26 1013.1 0 20.0 23.0 35.5 93.0 88.8 306.4
24 08:30 26.6 36 9.06 10.3 20 33 1013.1 0 19.9 23.1 35.5 93.3 88.9 306.7
24 08:20 26.4 37 9.21 10.5 22 26 1013.1 0 20.3 23.4 36.1 94.9 90.8 313.4
24 08:10 25.9 38 9.2 10.5 22 32 1013.1 0 20.3 23.5 36.3 95.4 91.3 314.9
24 08:00 25.5 39 9.23 10.5 20 28 1013.1 0 20.4 23.6 36.6 96.1 92.1 317.7
24 07:50 25.1 40 9.26 10.6 20 26 1013.1 0 20.4 23.8 36.9 96.9 92.9 320.5
24 07:40 24.8 41 9.33 10.7 20 26 1013.1 0 20.6 24.0 37.3 97.9 94.0 324.5
24 07:30 24.8 40 9.1 10.3 19 28 1013.1 0 20.1 23.6 36.5 95.7 91.4 315.2
24 07:20 24.7 41 9.28 10.6 17 22 1013.1 0 20.5 23.9 37.2 97.5 93.6 322.9
24 07:10 24.5 41 9.18 10.4 20 24 1013.1 0 20.3 23.8 36.9 96.8 92.6 319.6
24 07:00 24.4 41 9.12 10.3 20 32 1013.1 0 20.2 23.8 36.7 96.4 92.0 317.5
24 06:50 24.3 41 9.07 10.2 22 26 1013.1 0 20.1 23.7 36.6 96.0 91.6 315.9
24 06:40 24.3 41 9.07 10.2 22 26 1013.1 0 20.1 23.7 36.6 96.0 91.6 315.9
24 06:30 24.1 41 8.97 10 20 32 1013.1 0 19.9 23.6 36.3 95.3 90.6 312.6
24 06:20 23.9 42 9.09 10.2 19 20 1013.1 0 20.1 23.9 36.8 96.7 92.3 318.3
24 06:10 23.7 43 9.2 10.4 13 15 1013.1 0 20.4 24.1 37.3 98.0 93.8 323.6
24 06:00 23.6 44 9.36 10.6 13 19 1013.1 0 20.7 24.3 37.9 99.6 95.8 330.6
24 05:50 23.5 44 9.3 10.6 11 15 1013.1 0 20.6 24.3 37.8 99.2 95.2 328.5
24 05:40 23.6 44 9.36 10.6 11 15 1013.1 0 20.7 24.3 37.9 99.6 95.8 330.6
24 05:30 23.8 44 9.46 10.8 15 22 1013.1 0 20.9 24.4 38.2 100.4 96.7 334.0
24 05:20 23.9 43 9.3 10.6 13 15 1013.1 0 20.6 24.2 37.6 98.7 94.7 326.9
24 04:50 24 44 9.57 11 13 19 1013.1 0 21.1 24.5 38.5 101.2 97.8 337.7
24 04:40 24 44 9.57 11 15 19 1013.1 0 21.1 24.5 38.5 101.2 97.8 337.7
24 04:30 24.1 44 9.63 11.1 15 22 1013.1 0 21.3 24.6 38.7 101.6 98.4 339.8
24 04:20 24.2 44 9.68 11.2 15 17 1013.1 0 21.4 24.6 38.8 102.0 98.9 341.4
24 04:10 23.9 44 9.52 11.2 15 17 1013.1 0 21.0 24.5 38.4 100.8 97.3 336.0
24 04:00 23.8 45 9.68 11.2 19 26 1013.1 0 21.4 24.7 39.0 102.5 99.4 343.1
24 03:50 24.1 45 9.85 11.4 19 22 1013.1 0 21.7 24.9 39.5 103.8 101.0 349.0
24 03:40 24.4 44 9.79 11.4 20 26 1013.1 0 21.6 24.7 39.1 102.8 99.9 345.2
24 03:30 24.4 44 9.79 11.4 17 26 1013.1 0 21.6 24.7 39.1 102.8 99.9 345.2
24 03:20 24.3 45 9.96 11.6 17 22 1013.1 0 21.9 25.0 39.8 104.6 102.1 352.7
24 03:10 23.9 46 9.95 11.6 15 17 1013.1 0 21.9 25.1 39.9 105.0 102.5 354.1
24 03:00 24.2 45 9.9 11.5 17 26 1013.1 0 21.8 25.0 39.6 104.1 101.5 350.6
24 02:50 24 45 9.79 11.3 17 20 1013.1 0 21.6 24.9 39.3 103.3 100.4 346.9
24 02:40 24.1 45 9.85 11.4 15 17 1013.1 0 21.7 24.9 39.5 103.8 101.0 349.0
24 02:30 24.2 45 9.9 11.5 17 24 1013.1 0 21.8 25.0 39.6 104.1 101.5 350.6
24 02:20 24.1 45 9.85 11.4 17 20 1013.1 0 21.7 24.9 39.5 103.8 101.0 349.0
24 02:10 24.2 45 9.9 11.5 17 20 1013.1 0 21.8 25.0 39.6 104.1 101.5 350.6

Last Refresh: 24-Jan-2021 19:12:41

Most of the information presented on this site is sourced from the Bureau of Meteorology.  Copyright in all material sourced from the Bureau of Meteorology resides with the Commonwealth of Australia.